Time;durP1;ratioP1;P1;durP2;ratioP2;P2;SDS_P1;SDS_P2;PMS_P1;PMS_P2;Temp;Humidity;BMP_temperature;BMP_pressure;BME280_temperature;BME280_humidity;BME280_pressure;Samples;Min_cycle;Max_cycle;Signal;HPM_P1;HPM_P2
2022/01/03 00:01:33;;;;;;;9.48;3.28;;;10.70;99.90;;;;;;5133864;28;20031;-67
2022/01/03 00:03:58;;;;;;;14.95;3.53;;;10.70;99.90;;;;;;5116323;28;20023;-67
2022/01/03 00:06:24;;;;;;;11.80;4.20;;;10.70;99.90;;;;;;5133294;28;20019;-67
2022/01/03 00:08:49;;;;;;;14.15;3.60;;;10.70;99.90;;;;;;5134708;28;20027;-65
2022/01/03 00:11:19;;;;;;;13.30;3.58;;;10.70;99.90;;;;;;5133827;28;20073;-67
2022/01/03 00:13:48;;;;;;;8.43;2.80;;;10.70;99.90;;;;;;5133530;28;20023;-66
2022/01/03 00:16:14;;;;;;;10.23;3.28;;;10.70;99.90;;;;;;5133819;28;20075;-66
2022/01/03 00:18:40;;;;;;;19.13;3.78;;;10.70;99.90;;;;;;5099200;28;20034;-66
2022/01/03 00:21:11;;;;;;;9.48;2.92;;;10.70;99.90;;;;;;5133011;28;20020;-66
2022/01/03 00:23:39;;;;;;;9.15;3.10;;;10.70;99.90;;;;;;5134338;28;20062;-66
2022/01/03 00:26:08;;;;;;;11.18;3.03;;;10.70;99.90;;;;;;5133857;28;20368;-67
2022/01/03 00:28:38;;;;;;;12.27;3.63;;;10.70;99.90;;;;;;5116414;28;20022;-66
2022/01/03 00:31:05;;;;;;;10.13;3.90;;;10.80;99.90;;;;;;5133016;28;20472;-65
2022/01/03 00:33:32;;;;;;;13.23;3.58;;;10.80;99.90;;;;;;5132981;28;20030;-65
2022/01/03 00:36:00;;;;;;;15.18;3.92;;;10.80;99.90;;;;;;5115817;28;20069;-66
2022/01/03 00:38:29;;;;;;;13.07;4.05;;;10.80;99.90;;;;;;5133602;28;20024;-66
2022/01/03 00:40:56;;;;;;;11.40;3.40;;;10.80;99.90;;;;;;5134651;28;20023;-67
2022/01/03 00:43:22;;;;;;;14.98;3.72;;;10.80;99.90;;;;;;5134711;28;20068;-67
2022/01/03 00:45:52;;;;;;;21.80;4.25;;;10.80;99.90;;;;;;5134151;28;20047;-67
2022/01/03 00:48:18;;;;;;;10.68;4.05;;;10.80;99.90;;;;;;5134664;28;20039;-67
2022/01/03 00:50:43;;;;;;;10.10;3.60;;;10.80;99.90;;;;;;5134636;28;20034;-66
2022/01/03 00:53:09;;;;;;;12.57;3.55;;;10.80;99.90;;;;;;5134610;28;20028;-67
2022/01/03 00:55:35;;;;;;;16.05;3.83;;;10.80;99.90;;;;;;5134308;28;20023;-67
2022/01/03 00:58:07;;;;;;;12.13;3.30;;;10.80;99.90;;;;;;5134602;28;20460;-67
2022/01/03 01:00:36;;;;;;;15.77;4.25;;;10.80;99.90;;;;;;5132478;28;20078;-65
2022/01/03 01:03:15;;;;;;;12.23;3.70;;;10.80;99.90;;;;;;5134240;28;20102;-67
2022/01/03 01:05:43;;;;;;;13.98;3.58;;;10.70;99.90;;;;;;5132700;28;20051;-66
2022/01/03 01:08:10;;;;;;;18.88;4.30;;;10.70;99.90;;;;;;5136681;27;20023;-65
2022/01/03 01:10:39;;;;;;;14.80;4.10;;;10.70;99.90;;;;;;5138193;27;20026;-66
2022/01/03 01:13:08;;;;;;;10.38;3.60;;;10.70;99.90;;;;;;5137008;27;20034;-67
2022/01/03 01:15:35;;;;;;;17.38;4.57;;;10.70;99.90;;;;;;5136830;27;20526;-66
2022/01/03 01:18:03;;;;;;;10.32;3.80;;;10.70;99.90;;;;;;5136905;27;20387;-66
2022/01/03 01:20:29;;;;;;;14.23;4.05;;;10.80;99.90;;;;;;5119749;27;20023;-66
2022/01/03 01:22:55;;;;;;;11.57;4.20;;;10.70;99.90;;;;;;5136819;27;20345;-66
2022/01/03 01:25:27;;;;;;;17.23;4.18;;;10.70;99.90;;;;;;5136178;27;20022;-66
2022/01/03 01:27:56;;;;;;;14.23;4.05;;;10.70;99.90;;;;;;5136024;27;20019;-67
2022/01/03 01:30:25;;;;;;;18.98;3.97;;;10.70;99.90;;;;;;5136410;27;20023;-66
2022/01/03 01:32:58;;;;;;;17.35;4.32;;;10.70;99.90;;;;;;5135910;27;20027;-66
2022/01/03 01:35:24;;;;;;;;;;;10.60;99.90;;;;;;5137893;27;20023;-66
2022/01/03 01:37:54;;;;;;;14.40;4.10;;;10.60;99.90;;;;;;5137379;27;20344;-66
2022/01/03 01:40:22;;;;;;;14.07;3.85;;;10.60;99.90;;;;;;5137257;27;20029;-66
2022/01/03 01:42:48;;;;;;;16.30;4.57;;;10.60;99.90;;;;;;5137583;27;20030;-66
2022/01/03 01:45:18;;;;;;;14.63;3.95;;;10.50;99.90;;;;;;5119071;27;20484;-66
2022/01/03 01:47:47;;;;;;;16.55;4.35;;;10.50;99.90;;;;;;5136069;27;20120;-66
2022/01/03 01:50:13;;;;;;;16.52;4.03;;;10.60;99.90;;;;;;5135973;27;20057;-67
2022/01/03 01:52:39;;;;;;;16.35;4.20;;;10.60;99.90;;;;;;5135923;27;20031;-67
2022/01/03 01:55:08;;;;;;;16.35;4.30;;;10.70;99.90;;;;;;5135527;27;20031;-67
2022/01/03 01:57:59;;;;;;;16.35;4.28;;;10.60;99.90;;;;;;5119194;27;20023;-66
2022/01/03 02:00:26;;;;;;;21.40;4.47;;;10.60;99.90;;;;;;5136364;27;20050;-66
2022/01/03 02:03:31;;;;;;;20.90;5.45;;;10.50;99.90;;;;;;5118744;27;20050;-67
2022/01/03 02:06:07;;;;;;;14.93;4.10;;;10.50;99.90;;;;;;5136384;27;20566;-67
2022/01/03 02:08:39;;;;;;;21.75;5.97;;;10.60;99.90;;;;;;5135713;27;20019;-67
2022/01/03 02:11:32;;;;;;;17.23;6.30;;;10.60;99.90;;;;;;5135242;27;20122;-66
2022/01/03 02:13:59;;;;;;;18.45;5.82;;;10.60;99.90;;;;;;5136317;27;20144;-66
2022/01/03 02:16:25;;;;;;;18.67;6.40;;;10.50;99.90;;;;;;5135489;27;20436;-66
2022/01/03 02:18:51;;;;;;;20.35;6.13;;;10.50;99.90;;;;;;5136858;27;20107;-66
2022/01/03 02:21:18;;;;;;;19.08;6.93;;;10.50;99.90;;;;;;5134932;27;20118;-67
2022/01/03 02:23:44;;;;;;;18.70;6.38;;;10.50;99.90;;;;;;5136073;27;20033;-67
2022/01/03 02:26:10;;;;;;;18.55;5.93;;;10.40;99.90;;;;;;5134931;27;20030;-67
2022/01/03 02:28:35;;;;;;;24.08;6.18;;;10.40;99.90;;;;;;5118351;27;20448;-67
2022/01/03 02:31:01;;;;;;;26.17;6.75;;;10.40;99.90;;;;;;5136623;27;20035;-66
2022/01/03 02:33:27;;;;;;;29.15;6.00;;;10.40;99.90;;;;;;5134818;27;20495;-67
2022/01/03 02:35:52;;;;;;;27.05;5.80;;;10.40;99.90;;;;;;5118026;27;20089;-66
2022/01/03 02:38:18;;;;;;;24.70;5.43;;;10.40;99.90;;;;;;5117957;27;20038;-67
2022/01/03 02:40:44;;;;;;;21.10;5.25;;;10.50;99.90;;;;;;5135125;27;20114;-66
2022/01/03 02:43:10;;;;;;;24.65;5.65;;;10.50;99.90;;;;;;5134589;27;20464;-66
2022/01/03 02:45:35;;;;;;;26.75;6.18;;;10.40;99.90;;;;;;5136343;27;20019;-66
2022/01/03 02:48:04;;;;;;;19.08;5.03;;;10.40;99.90;;;;;;5117454;27;20023;-66
2022/01/03 02:50:31;;;;;;;24.20;5.75;;;10.40;99.90;;;;;;5135074;27;20099;-66
2022/01/03 02:52:57;;;;;;;27.70;5.75;;;10.40;99.90;;;;;;5135036;27;20456;-67
2022/01/03 02:55:23;;;;;;;30.77;6.68;;;10.40;99.90;;;;;;5100327;27;20034;-67
2022/01/03 02:57:51;;;;;;;28.77;6.25;;;10.50;99.90;;;;;;5117251;27;20458;-67
2022/01/03 03:00:22;;;;;;;28.58;6.63;;;10.40;99.90;;;;;;5117288;27;20039;-66
2022/01/03 03:02:47;;;;;;;30.23;6.53;;;10.40;99.90;;;;;;5134211;27;20023;-66
2022/01/03 03:05:14;;;;;;;27.52;5.93;;;10.30;99.90;;;;;;5134499;27;20023;-66
2022/01/03 03:07:40;;;;;;;23.00;5.78;;;10.40;99.90;;;;;;5134764;27;20015;-66
2022/01/03 03:10:10;;;;;;;36.55;6.70;;;10.40;99.90;;;;;;5136184;27;20027;-66
2022/01/03 03:12:36;;;;;;;27.85;6.20;;;10.40;99.90;;;;;;5133987;27;20076;-66
2022/01/03 03:15:03;;;;;;;24.35;6.60;;;10.40;99.90;;;;;;5135788;27;20023;-66
2022/01/03 03:17:29;;;;;;;25.38;6.50;;;10.40;99.90;;;;;;5135471;27;20022;-66
2022/01/03 03:20:03;;;;;;;24.13;5.97;;;10.40;99.90;;;;;;5117149;27;20035;-66
2022/01/03 03:22:30;;;;;;;20.45;5.95;;;10.50;99.90;;;;;;5116711;27;20464;-66
2022/01/03 03:25:17;;;;;;;22.15;6.25;;;10.40;99.90;;;;;;5133801;27;20059;-66
2022/01/03 03:27:47;;;;;;;27.95;6.32;;;10.40;99.90;;;;;;5133709;27;20023;-67
2022/01/03 03:30:16;;;;;;;27.60;6.47;;;10.40;99.90;;;;;;5116934;28;20471;-66
2022/01/03 03:32:43;;;;;;;22.10;6.70;;;10.40;99.90;;;;;;5135490;27;20076;-66
2022/01/03 03:35:09;;;;;;;23.88;6.38;;;10.30;99.90;;;;;;5134289;27;20047;-67
2022/01/03 03:37:35;;;;;;;25.58;6.03;;;10.30;99.90;;;;;;5099605;27;20077;-67
2022/01/03 03:40:01;;;;;;;21.80;5.20;;;10.30;99.90;;;;;;5135306;27;20567;-66
2022/01/03 03:42:26;;;;;;;25.90;5.70;;;10.30;99.90;;;;;;5133524;27;20023;-66
2022/01/03 03:44:52;;;;;;;20.05;5.72;;;10.30;99.90;;;;;;5134735;27;20019;-67
2022/01/03 03:47:17;;;;;;;26.75;5.55;;;10.30;99.90;;;;;;5135264;27;20532;-66
2022/01/03 03:49:43;;;;;;;33.22;6.35;;;10.30;99.90;;;;;;5135227;27;20023;-66
2022/01/03 03:52:09;;;;;;;27.25;5.95;;;10.10;99.90;;;;;;5133350;27;20034;-66
2022/01/03 03:54:35;;;;;;;23.25;5.80;;;10.10;99.90;;;;;;5133762;27;20095;-66
2022/01/03 03:57:01;;;;;;;26.48;6.10;;;10.10;99.90;;;;;;5133670;27;20031;-66
2022/01/03 03:59:27;;;;;;;23.33;6.18;;;10.00;99.90;;;;;;5134523;27;20480;-67
2022/01/03 04:01:54;;;;;;;26.65;5.28;;;10.10;99.90;;;;;;5134788;27;20034;-67
2022/01/03 04:04:20;;;;;;;22.85;4.93;;;10.10;99.90;;;;;;5133868;28;20068;-66
2022/01/03 04:06:46;;;;;;;22.88;4.93;;;10.10;99.90;;;;;;5133249;28;20110;-66
2022/01/03 04:09:12;;;;;;;23.25;5.45;;;10.10;99.90;;;;;;5099165;28;20448;-67
2022/01/03 04:11:37;;;;;;;23.92;5.72;;;10.10;99.90;;;;;;5133161;28;20118;-66
2022/01/03 04:14:03;;;;;;;27.25;5.35;;;10.10;99.90;;;;;;5133138;28;20050;-66
2022/01/03 04:16:28;;;;;;;19.65;5.28;;;10.10;99.90;;;;;;5133169;28;20027;-66
2022/01/03 04:18:54;;;;;;;21.80;5.50;;;10.10;99.90;;;;;;5134937;28;20020;-66
2022/01/03 04:21:20;;;;;;;25.55;5.07;;;10.10;99.90;;;;;;5116320;28;20027;-67
2022/01/03 04:23:46;;;;;;;22.52;5.93;;;10.10;99.90;;;;;;5133676;28;20023;-67
2022/01/03 04:26:11;;;;;;;18.33;5.35;;;10.00;99.90;;;;;;5098967;28;20375;-67
2022/01/03 04:28:38;;;;;;;19.00;5.35;;;10.00;99.90;;;;;;5116258;28;20046;-67
2022/01/03 04:31:03;;;;;;;23.85;5.45;;;10.10;99.90;;;;;;5115917;28;20020;-67
2022/01/03 04:33:29;;;;;;;19.30;5.30;;;10.00;99.90;;;;;;5134803;28;20023;-67
2022/01/03 04:35:54;;;;;;;19.70;5.57;;;10.10;99.90;;;;;;5133001;28;20027;-67
2022/01/03 04:38:20;;;;;;;17.70;5.45;;;10.10;99.90;;;;;;5132969;28;20057;-66
2022/01/03 04:40:46;;;;;;;29.35;5.30;;;10.10;99.90;;;;;;5132786;28;20114;-67
2022/01/03 04:43:11;;;;;;;22.20;6.03;;;10.20;99.90;;;;;;5118194;27;20023;-67
2022/01/03 04:45:37;;;;;;;20.20;4.88;;;10.10;99.90;;;;;;5138736;27;20019;-66
2022/01/03 04:48:14;;;;;;;20.85;5.30;;;10.10;99.90;;;;;;5119759;27;20023;-66
2022/01/03 04:50:39;;;;;;;19.85;5.50;;;10.10;99.90;;;;;;5136912;27;20030;-66
2022/01/03 04:53:05;;;;;;;20.08;5.30;;;10.10;99.90;;;;;;5138301;27;20027;-66
2022/01/03 04:55:30;;;;;;;26.70;6.25;;;10.00;99.90;;;;;;5137958;27;20023;-66
2022/01/03 04:57:56;;;;;;;21.75;5.45;;;10.00;99.90;;;;;;5136643;27;20048;-66
2022/01/03 05:00:21;;;;;;;35.33;7.53;;;10.00;99.90;;;;;;5136461;27;20049;-66
2022/01/03 05:02:47;;;;;;;26.88;5.85;;;10.00;99.90;;;;;;5137204;27;20076;-66
2022/01/03 05:05:13;;;;;;;22.73;5.25;;;10.00;99.90;;;;;;5120095;27;20337;-66
2022/01/03 05:07:38;;;;;;;26.00;6.07;;;10.10;99.90;;;;;;5136561;27;20072;-66
2022/01/03 05:10:05;;;;;;;27.27;6.15;;;10.10;99.90;;;;;;5138346;27;20472;-66
2022/01/03 05:12:30;;;;;;;22.38;5.10;;;10.20;99.90;;;;;;5119416;27;20031;-66
2022/01/03 05:14:56;;;;;;;25.88;5.20;;;10.10;99.90;;;;;;5136699;27;20027;-66
2022/01/03 05:17:21;;;;;;;23.35;5.80;;;10.10;99.90;;;;;;5137552;27;20023;-66
2022/01/03 05:19:46;;;;;;;24.52;5.43;;;10.10;99.90;;;;;;5138005;27;20038;-66
2022/01/03 05:22:12;;;;;;;18.52;5.43;;;10.10;99.90;;;;;;5119036;27;20487;-66
2022/01/03 05:24:38;;;;;;;22.20;5.50;;;10.20;99.90;;;;;;5119349;27;20023;-66
2022/01/03 05:27:05;;;;;;;26.83;5.32;;;10.20;99.90;;;;;;5136811;27;20023;-66
2022/01/03 05:29:32;;;;;;;26.40;5.32;;;10.20;99.90;;;;;;5137602;27;20409;-66
2022/01/03 05:31:57;;;;;;;25.40;5.85;;;10.10;99.90;;;;;;5136080;27;20030;-67
2022/01/03 05:34:23;;;;;;;22.08;4.95;;;10.20;99.90;;;;;;5135938;27;20019;-66
2022/01/03 05:36:48;;;;;;;24.52;5.47;;;10.10;99.90;;;;;;5135900;27;20031;-66
2022/01/03 05:39:15;;;;;;;19.42;4.95;;;10.20;99.90;;;;;;5137670;27;20088;-67
2022/01/03 05:41:41;;;;;;;23.13;5.03;;;10.20;99.90;;;;;;5137562;27;20444;-66
2022/01/03 05:44:07;;;;;;;24.35;5.38;;;10.20;99.90;;;;;;5135861;27;20019;-66
2022/01/03 05:46:33;;;;;;;23.15;4.38;;;10.20;99.90;;;;;;5137524;27;20060;-66
2022/01/03 05:48:59;;;;;;;23.60;4.78;;;10.20;99.90;;;;;;5137221;27;20035;-66
2022/01/03 05:51:24;;;;;;;22.60;4.55;;;10.20;99.90;;;;;;5135693;27;20031;-66
2022/01/03 05:53:50;;;;;;;21.58;4.07;;;10.20;99.90;;;;;;5136473;27;20035;-66
2022/01/03 05:56:15;;;;;;;24.08;4.53;;;10.20;99.90;;;;;;5137107;27;20023;-66
2022/01/03 05:58:41;;;;;;;23.60;3.92;;;10.10;99.90;;;;;;5118407;27;20023;-66
2022/01/03 06:01:06;;;;;;;28.05;5.85;;;10.10;99.90;;;;;;5135325;27;20066;-66
2022/01/03 06:03:36;;;;;;;22.65;4.38;;;10.10;99.90;;;;;;5135381;27;20011;-66
2022/01/03 06:08:30;;;;;;;19.38;4.63;;;10.10;99.90;;;;;;5135629;27;20492;-67
2022/01/03 06:10:56;;;;;;;24.10;5.13;;;10.00;99.90;;;;;;5137096;27;20098;-66
2022/01/03 06:13:21;;;;;;;21.15;4.88;;;10.00;99.90;;;;;;5118072;27;20027;-66
2022/01/03 06:15:47;;;;;;;18.17;4.95;;;9.90;99.90;;;;;;5135820;27;20035;-66
2022/01/03 06:18:15;;;;;;;26.90;4.47;;;9.90;99.90;;;;;;5135776;27;20106;-66
2022/01/03 06:20:43;;;;;;;26.63;5.63;;;9.90;99.90;;;;;;5136807;27;20029;-66
2022/01/03 06:23:11;;;;;;;24.73;5.18;;;9.90;99.90;;;;;;5118034;27;20079;-66
2022/01/03 06:25:38;;;;;;;23.50;4.30;;;9.90;99.90;;;;;;5136772;27;20023;-66
2022/01/03 06:28:07;;;;;;;28.17;5.28;;;9.90;99.90;;;;;;5134906;27;20030;-66
2022/01/03 06:30:33;;;;;;;28.65;4.65;;;9.90;99.90;;;;;;5135241;27;20023;-66
2022/01/03 06:32:59;;;;;;;26.00;5.00;;;9.80;99.90;;;;;;5136592;27;20183;-67
2022/01/03 06:35:24;;;;;;;19.42;5.10;;;9.80;99.90;;;;;;5135098;27;20476;-66
2022/01/03 06:37:50;;;;;;;19.42;4.65;;;9.80;99.90;;;;;;5117552;27;20122;-66
2022/01/03 06:40:15;;;;;;;20.67;4.22;;;9.80;99.90;;;;;;5134953;27;20119;-66
2022/01/03 06:42:41;;;;;;;24.70;4.65;;;9.80;99.90;;;;;;5100508;27;20395;-66
2022/01/03 06:45:07;;;;;;;27.13;4.55;;;9.80;99.90;;;;;;5136127;27;20016;-67
2022/01/03 06:47:33;;;;;;;29.65;5.13;;;9.70;99.90;;;;;;5136037;27;20019;-66
2022/01/03 06:49:58;;;;;;;20.27;4.60;;;9.70;99.90;;;;;;5136251;27;20114;-66
2022/01/03 06:52:24;;;;;;;30.60;5.15;;;9.70;99.90;;;;;;5117303;27;20051;-66
2022/01/03 06:54:50;;;;;;;22.80;4.30;;;9.70;99.90;;;;;;5135831;27;20023;-66
2022/01/03 06:57:15;;;;;;;17.83;4.18;;;9.80;99.90;;;;;;5134656;27;20019;-66
2022/01/03 06:59:41;;;;;;;24.20;4.95;;;9.70;99.90;;;;;;5134394;27;20047;-66
2022/01/03 07:02:07;;;;;;;25.33;5.07;;;9.80;99.90;;;;;;5134825;27;20020;-67
2022/01/03 07:04:33;;;;;;;20.40;4.50;;;9.80;99.90;;;;;;5133980;27;20011;-66
2022/01/03 07:06:59;;;;;;;29.33;5.35;;;9.80;99.90;;;;;;5134406;27;20164;-67
2022/01/03 07:09:24;;;;;;;15.18;4.88;;;9.80;99.90;;;;;;5135621;27;20023;-67
2022/01/03 07:11:50;;;;;;;25.08;5.28;;;9.80;99.90;;;;;;5134133;27;20030;-66
2022/01/03 07:19:52;;;;;;;22.45;5.15;;;9.90;99.90;;;;;;5110285;28;20036;-67
2022/01/03 07:22:18;;;;;;;23.85;4.90;;;9.90;99.90;;;;;;5110057;28;20028;-67
2022/01/03 07:24:43;;;;;;;20.02;4.57;;;9.90;99.90;;;;;;5111277;28;20023;-66
2022/01/03 07:27:11;;;;;;;20.13;4.57;;;10.00;99.90;;;;;;5109690;28;20024;-67
2022/01/03 07:29:37;;;;;;;21.80;4.55;;;10.00;99.90;;;;;;5111057;28;20028;-67
2022/01/03 07:32:03;;;;;;;22.30;5.75;;;10.00;99.90;;;;;;5109667;28;20081;-67
2022/01/03 07:34:29;;;;;;;24.10;5.07;;;10.00;99.90;;;;;;5110456;28;20024;-67
2022/01/03 07:36:55;;;;;;;14.63;4.57;;;10.00;99.90;;;;;;5110094;28;20058;-67
2022/01/03 07:39:21;;;;;;;28.75;5.78;;;9.90;99.90;;;;;;5091803;28;20409;-67
2022/01/03 07:41:46;;;;;;;19.55;5.40;;;9.90;99.90;;;;;;5110232;28;20047;-66
2022/01/03 07:44:12;;;;;;;26.75;5.55;;;9.90;99.90;;;;;;5115475;28;20050;-65
2022/01/03 07:46:38;;;;;;;21.10;5.30;;;9.90;99.90;;;;;;5130101;28;20471;-66
2022/01/03 07:49:04;;;;;;;23.92;6.25;;;10.00;99.90;;;;;;5118046;28;20035;-65
2022/01/03 07:51:30;;;;;;;22.20;5.00;;;10.00;99.90;;;;;;5092364;28;20041;-65
2022/01/03 07:53:55;;;;;;;21.05;4.78;;;10.00;99.90;;;;;;5110593;28;20106;-65
2022/01/03 07:56:21;;;;;;;23.15;4.15;;;10.10;99.90;;;;;;5109088;28;20472;-65
2022/01/03 07:58:48;;;;;;;25.38;5.10;;;10.10;99.90;;;;;;5112074;28;20027;-67
2022/01/03 08:01:13;;;;;;;22.83;4.45;;;10.10;99.90;;;;;;5112017;28;20039;-67
2022/01/03 08:03:39;;;;;;;24.92;4.43;;;10.10;99.90;;;;;;5109774;28;20377;-67
2022/01/03 08:06:07;;;;;;;20.92;4.32;;;10.00;99.90;;;;;;5110368;28;20495;-66
2022/01/03 08:08:33;;;;;;;23.42;5.38;;;10.10;99.90;;;;;;5110043;28;20020;-66
2022/01/03 08:10:58;;;;;;;16.95;4.47;;;10.00;99.90;;;;;;5110688;28;20078;-67
2022/01/03 08:13:24;;;;;;;22.27;4.30;;;10.00;99.90;;;;;;5110232;28;20027;-67
2022/01/03 08:15:49;;;;;;;26.58;5.07;;;10.10;99.90;;;;;;5109425;28;20488;-67
2022/01/03 08:18:15;;;;;;;22.98;5.22;;;10.10;99.90;;;;;;5087731;28;20369;-67
2022/01/03 08:20:41;;;;;;;18.00;4.40;;;10.10;99.90;;;;;;5090382;28;20023;-66
2022/01/03 08:23:06;;;;;;;24.05;4.72;;;10.10;99.90;;;;;;5130942;27;20020;-67
2022/01/03 08:25:37;;;;;;;25.67;5.20;;;10.10;99.90;;;;;;5129670;28;20027;-66
2022/01/03 08:28:04;;;;;;;16.38;4.20;;;10.10;99.90;;;;;;5108024;27;20103;-67
2022/01/03 08:30:30;;;;;;;25.15;5.07;;;10.20;99.90;;;;;;5105821;28;20180;-67
2022/01/03 08:32:55;;;;;;;25.58;4.55;;;10.20;99.90;;;;;;5096960;28;20481;-67
2022/01/03 08:35:22;;;;;;;19.05;4.35;;;10.30;99.90;;;;;;5116597;28;20418;-66
2022/01/03 08:37:48;;;;;;;28.42;4.65;;;10.20;99.90;;;;;;5117237;27;20098;-66
2022/01/03 08:40:13;;;;;;;22.65;4.55;;;10.30;99.90;;;;;;5112262;28;20059;-66
2022/01/03 08:42:39;;;;;;;15.95;3.70;;;10.20;99.90;;;;;;5096450;28;20095;-67
2022/01/03 08:45:05;;;;;;;26.92;5.43;;;10.20;99.90;;;;;;5095752;28;20469;-66
2022/01/03 08:47:30;;;;;;;21.42;4.45;;;10.20;99.90;;;;;;5109132;28;20362;-67
2022/01/03 08:49:56;;;;;;;21.38;5.18;;;10.10;99.90;;;;;;5092308;28;20066;-66
2022/01/03 08:52:22;;;;;;;28.60;5.93;;;10.00;99.90;;;;;;5095612;28;20043;-67
2022/01/03 08:54:48;;;;;;;21.70;5.20;;;9.80;99.90;;;;;;5077030;28;20054;-66
2022/01/03 08:57:13;;;;;;;22.30;5.32;;;9.70;99.90;;;;;;5096033;28;20028;-67
2022/01/03 08:59:39;;;;;;;17.85;4.70;;;9.50;99.90;;;;;;5095811;28;20031;-67
2022/01/03 09:02:05;;;;;;;25.00;5.35;;;9.50;99.90;;;;;;5096547;28;20534;-66
2022/01/03 09:04:31;;;;;;;23.55;5.47;;;9.50;99.90;;;;;;5094192;28;20031;-66
2022/01/03 09:06:58;;;;;;;21.10;5.00;;;9.50;99.90;;;;;;5094514;28;20059;-66
2022/01/03 09:09:25;;;;;;;18.40;5.20;;;9.50;99.90;;;;;;5094761;28;20020;-66
2022/01/03 09:11:51;;;;;;;22.80;5.13;;;9.50;99.90;;;;;;5093555;28;20489;-67
2022/01/03 09:14:16;;;;;;;23.80;4.47;;;9.50;99.90;;;;;;5095065;28;20020;-66
2022/01/03 09:16:42;;;;;;;24.02;4.53;;;9.60;99.90;;;;;;5094013;28;20040;-67
2022/01/03 09:19:07;;;;;;;23.17;4.88;;;9.60;99.90;;;;;;5094737;28;20134;-66
2022/01/03 09:21:33;;;;;;;21.80;4.90;;;9.60;99.90;;;;;;5095070;28;20078;-67
2022/01/03 09:24:21;;;;;;;26.08;5.38;;;9.50;99.90;;;;;;5095065;28;20059;-66
2022/01/03 09:29:30;;;;;;;21.27;4.70;;;9.30;99.90;;;;;;5095107;28;20051;-67
2022/01/03 09:31:56;;;;;;;20.58;5.80;;;9.20;99.90;;;;;;5095267;28;20024;-66
2022/01/03 09:34:21;;;;;;;25.05;6.20;;;9.20;99.90;;;;;;5095343;28;20109;-66
2022/01/03 09:36:47;;;;;;;28.90;6.28;;;9.20;99.90;;;;;;5093621;28;20024;-66
2022/01/03 09:39:12;;;;;;;25.27;5.28;;;9.20;99.90;;;;;;5094576;28;20522;-66
2022/01/03 09:41:43;;;;;;;23.88;6.00;;;9.20;99.90;;;;;;5094056;28;20065;-67
2022/01/03 09:44:12;;;;;;;22.40;6.43;;;9.20;99.90;;;;;;5094142;28;20043;-67
2022/01/03 09:46:41;;;;;;;25.50;5.97;;;9.20;99.90;;;;;;5093882;28;20024;-67
2022/01/03 09:49:09;;;;;;;26.73;6.80;;;9.20;99.90;;;;;;5095179;28;20493;-67
2022/01/03 09:51:35;;;;;;;23.48;7.40;;;9.30;99.90;;;;;;5097410;28;20031;-67
2022/01/03 09:54:05;;;;;;;19.70;7.85;;;9.40;99.90;;;;;;5113941;28;20019;-67
2022/01/03 09:56:33;;;;;;;33.90;10.15;;;9.50;99.90;;;;;;5113929;28;20019;-66
2022/01/03 09:59:01;;;;;;;29.10;10.32;;;9.50;99.90;;;;;;5059936;28;20024;-66
2022/01/03 10:01:29;;;;;;;28.77;9.05;;;9.60;99.90;;;;;;5072923;28;20025;-66
2022/01/03 10:03:54;;;;;;;29.02;8.98;;;9.70;99.90;;;;;;5088336;28;20415;-66
2022/01/03 10:06:20;;;;;;;26.83;9.25;;;9.70;99.90;;;;;;5094401;28;20031;-66
2022/01/03 10:08:47;;;;;;;30.73;8.98;;;9.70;99.90;;;;;;5100465;28;20027;-66
2022/01/03 10:11:14;;;;;;;25.90;8.18;;;9.70;99.90;;;;;;5115370;28;20023;-66
2022/01/03 10:13:40;;;;;;;20.23;7.63;;;9.80;99.90;;;;;;5113549;28;20028;-67
2022/01/03 10:16:07;;;;;;;26.77;7.85;;;9.80;99.90;;;;;;5092302;28;20040;-67
2022/01/03 10:18:33;;;;;;;22.52;6.97;;;9.90;99.90;;;;;;5093034;28;20028;-67
2022/01/03 10:21:00;;;;;;;21.42;6.38;;;9.90;99.90;;;;;;5082005;28;20024;-67
2022/01/03 10:23:26;;;;;;;20.20;5.93;;;9.90;99.90;;;;;;5096030;28;20028;-67
2022/01/03 10:25:51;;;;;;;29.10;6.57;;;10.00;99.90;;;;;;5097938;28;20184;-67
2022/01/03 10:28:23;;;;;;;27.20;6.28;;;10.00;99.90;;;;;;5075965;28;20020;-67
2022/01/03 10:30:49;;;;;;;21.73;6.53;;;10.20;99.90;;;;;;5093046;28;20103;-67
2022/01/03 10:33:20;;;;;;;24.77;7.05;;;10.30;99.90;;;;;;5093674;28;20062;-67
2022/01/03 10:35:51;;;;;;;22.23;6.28;;;10.50;99.90;;;;;;5100009;28;20030;-66
2022/01/03 10:38:40;;;;;;;31.73;7.30;;;10.40;99.90;;;;;;5110503;28;20016;-67
2022/01/03 10:43:53;;;;;;;29.70;7.18;;;10.40;99.90;;;;;;5070848;28;20369;-67
2022/01/03 10:46:25;;;;;;;22.10;5.97;;;10.30;99.90;;;;;;5044320;28;20038;-69
2022/01/03 10:48:55;;;;;;;20.30;5.95;;;10.40;99.90;;;;;;5054748;28;20417;-67
2022/01/03 10:51:24;;;;;;;20.00;5.65;;;10.30;99.90;;;;;;5056033;28;20021;-67
2022/01/03 10:53:53;;;;;;;26.52;6.53;;;10.40;99.90;;;;;;5054039;28;20032;-67
2022/01/03 10:56:38;;;;;;;20.35;6.45;;;10.40;99.90;;;;;;5051253;28;20057;-67
2022/01/03 10:59:22;;;;;;;28.45;6.20;;;10.40;99.90;;;;;;5050233;28;20087;-67
2022/01/03 11:02:01;;;;;;;26.73;7.00;;;10.50;99.90;;;;;;5050573;28;20024;-67
2022/01/03 11:04:52;;;;;;;21.10;6.47;;;10.60;99.90;;;;;;5031950;28;20100;-67
2022/01/03 11:10:51;;;;;;;22.50;5.28;;;10.60;99.90;;;;;;5122716;27;20051;-66
2022/01/03 11:13:20;;;;;;;18.70;5.22;;;10.70;99.90;;;;;;5125114;28;20028;-66
2022/01/03 11:15:55;;;;;;;26.63;5.47;;;10.70;99.90;;;;;;5106997;28;20552;-66
2022/01/03 11:18:25;;;;;;;19.65;4.88;;;10.60;99.90;;;;;;5097073;28;20075;-66
2022/01/03 11:21:14;;;;;;;18.08;4.75;;;10.60;99.90;;;;;;5105881;28;20381;-66
2022/01/03 11:23:42;;;;;;;24.45;5.32;;;10.60;99.90;;;;;;5110174;28;20490;-66
2022/01/03 11:26:11;;;;;;;21.80;5.07;;;10.60;99.90;;;;;;5101820;28;20115;-66
2022/01/03 11:28:36;;;;;;;31.10;5.38;;;10.60;99.90;;;;;;5111040;28;20036;-66
2022/01/03 11:31:03;;;;;;;18.42;4.43;;;10.70;99.90;;;;;;5092657;28;20363;-66
2022/01/03 11:33:29;;;;;;;23.17;5.72;;;10.60;99.90;;;;;;5091706;28;20043;-66
2022/01/03 11:35:58;;;;;;;25.98;5.72;;;10.70;99.90;;;;;;5089654;28;20078;-66
2022/01/03 11:38:23;;;;;;;19.60;5.63;;;10.70;99.90;;;;;;5111803;28;20412;-66
2022/01/03 11:40:49;;;;;;;20.17;4.68;;;10.70;99.90;;;;;;5101575;28;20123;-66
2022/01/03 11:43:16;;;;;;;22.50;4.60;;;10.70;99.90;;;;;;5109030;28;20376;-66
2022/01/03 11:45:42;;;;;;;19.90;4.63;;;10.70;99.90;;;;;;5110465;28;20020;-66
2022/01/03 11:48:09;;;;;;;24.08;5.45;;;10.70;99.90;;;;;;5109934;28;20024;-66
2022/01/03 11:50:37;;;;;;;19.77;4.70;;;10.70;99.90;;;;;;5109250;28;20020;-66
2022/01/03 11:53:05;;;;;;;18.38;4.53;;;10.70;99.90;;;;;;5109538;28;20027;-66
2022/01/03 11:55:34;;;;;;;17.30;4.30;;;10.80;99.90;;;;;;5106269;28;20016;-66
2022/01/03 12:03:50;;;;;;;16.05;5.38;;;10.90;99.90;;;;;;5107481;28;20029;-66
2022/01/03 12:06:29;;;;;;;21.48;5.00;;;10.90;99.90;;;;;;5096883;28;20020;-67
2022/01/03 12:08:58;;;;;;;20.85;4.53;;;11.00;99.90;;;;;;5110683;28;20431;-66
2022/01/03 12:11:27;;;;;;;21.13;5.35;;;11.10;99.90;;;;;;5091369;28;20123;-67
2022/01/03 12:14:05;;;;;;;17.73;4.95;;;11.10;99.90;;;;;;5108177;28;20451;-66
2022/01/03 12:16:53;;;;;;;18.02;5.10;;;11.00;99.90;;;;;;5094138;28;20027;-65
2022/01/03 12:19:40;;;;;;;17.73;3.95;;;10.90;99.90;;;;;;5109717;28;20529;-65
2022/01/03 12:22:18;;;;;;;19.40;4.93;;;10.90;99.90;;;;;;5107713;28;20024;-66
2022/01/03 12:27:41;;;;;;;17.33;4.10;;;10.90;99.90;;;;;;5111537;27;20380;-66
2022/01/03 12:30:10;;;;;;;25.73;4.77;;;10.90;99.90;;;;;;5110063;28;20032;-66
2022/01/03 12:40:34;;;;;;;20.20;4.30;;;10.90;99.90;;;;;;5079569;28;20862;-67
2022/01/03 12:43:05;;;;;;;22.73;5.35;;;11.00;99.90;;;;;;5069439;28;20021;-67
2022/01/03 12:48:24;;;;;;;21.92;5.50;;;11.10;99.90;;;;;;5091211;28;20426;-67
2022/01/03 12:56:13;;;;;;;17.42;4.38;;;11.10;99.90;;;;;;5112198;27;20284;-67
2022/01/03 13:03:58;;;;;;;17.15;4.43;;;11.00;99.90;;;;;;5150236;27;20313;-67
2022/01/03 13:09:08;;;;;;;21.90;4.55;;;11.00;99.90;;;;;;5111270;27;20323;-66
2022/01/03 13:11:40;;;;;;;22.03;4.70;;;11.00;99.90;;;;;;5109829;28;20020;-67
2022/01/03 13:14:18;;;;;;;21.13;4.00;;;11.10;99.90;;;;;;5111161;28;20098;-67
2022/01/03 13:16:51;;;;;;;17.92;4.00;;;11.20;99.90;;;;;;5072859;28;20025;-66
2022/01/03 13:19:22;;;;;;;16.27;4.20;;;11.10;99.90;;;;;;5090706;28;20031;-66
2022/01/03 13:21:51;;;;;;;21.15;5.20;;;11.00;99.90;;;;;;5099733;28;20509;-66
2022/01/03 13:24:20;;;;;;;22.50;4.18;;;11.00;99.90;;;;;;5101249;28;20024;-67
2022/01/03 13:27:07;;;;;;;21.60;5.28;;;10.90;99.90;;;;;;5105783;28;20492;-67
2022/01/03 13:29:43;;;;;;;15.57;4.10;;;10.90;99.90;;;;;;5097278;28;20366;-67
2022/01/03 13:32:12;;;;;;;15.93;4.15;;;10.90;99.90;;;;;;5099578;28;20042;-67